sensor_id;sensor_type;location;lat;lon;timestamp;P1;durP1;ratioP1;P2;durP2;ratioP2
46348;SDS011;32057;47.830;19.046;2023-02-15T00:01:41;13.32;;;5.55;;
46348;SDS011;32057;47.830;19.046;2023-02-15T00:04:07;5.93;;;5.03;;
46348;SDS011;32057;47.830;19.046;2023-02-15T00:06:34;3.97;;;3.63;;
46348;SDS011;32057;47.830;19.046;2023-02-15T00:09:00;4.70;;;4.07;;
46348;SDS011;32057;47.830;19.046;2023-02-15T00:11:25;5.20;;;4.43;;
46348;SDS011;32057;47.830;19.046;2023-02-15T00:14:30;11.32;;;5.38;;
46348;SDS011;32057;47.830;19.046;2023-02-15T00:16:55;10.38;;;4.75;;
46348;SDS011;32057;47.830;19.046;2023-02-15T00:19:24;9.73;;;5.07;;
46348;SDS011;32057;47.830;19.046;2023-02-15T00:21:50;8.02;;;4.68;;
46348;SDS011;32057;47.830;19.046;2023-02-15T00:24:15;6.60;;;5.15;;
46348;SDS011;32057;47.830;19.046;2023-02-15T00:26:43;4.78;;;4.38;;
46348;SDS011;32057;47.830;19.046;2023-02-15T00:29:09;7.78;;;4.90;;
46348;SDS011;32057;47.830;19.046;2023-02-15T00:31:35;6.70;;;3.88;;
46348;SDS011;32057;47.830;19.046;2023-02-15T00:34:02;5.50;;;3.00;;
46348;SDS011;32057;47.830;19.046;2023-02-15T00:36:29;4.93;;;3.05;;
46348;SDS011;32057;47.830;19.046;2023-02-15T00:38:55;7.53;;;5.38;;
46348;SDS011;32057;47.830;19.046;2023-02-15T00:41:20;9.40;;;3.72;;
46348;SDS011;32057;47.830;19.046;2023-02-15T00:43:45;8.32;;;4.65;;
46348;SDS011;32057;47.830;19.046;2023-02-15T00:46:11;5.75;;;4.63;;
46348;SDS011;32057;47.830;19.046;2023-02-15T00:48:36;7.88;;;3.90;;
46348;SDS011;32057;47.830;19.046;2023-02-15T00:51:02;9.45;;;6.05;;
46348;SDS011;32057;47.830;19.046;2023-02-15T00:53:28;4.20;;;3.28;;
46348;SDS011;32057;47.830;19.046;2023-02-15T00:55:54;9.40;;;5.15;;
46348;SDS011;32057;47.830;19.046;2023-02-15T00:58:20;6.20;;;4.13;;
46348;SDS011;32057;47.830;19.046;2023-02-15T01:00:46;6.38;;;4.18;;
46348;SDS011;32057;47.830;19.046;2023-02-15T01:03:13;7.43;;;4.45;;
46348;SDS011;32057;47.830;19.046;2023-02-15T01:05:39;8.30;;;4.70;;
46348;SDS011;32057;47.830;19.046;2023-02-15T01:08:05;4.13;;;3.63;;
46348;SDS011;32057;47.830;19.046;2023-02-15T01:10:31;7.35;;;4.45;;
46348;SDS011;32057;47.830;19.046;2023-02-15T01:12:58;6.45;;;4.47;;
46348;SDS011;32057;47.830;19.046;2023-02-15T01:15:23;8.55;;;5.20;;
46348;SDS011;32057;47.830;19.046;2023-02-15T01:17:49;6.93;;;5.20;;
46348;SDS011;32057;47.830;19.046;2023-02-15T01:20:25;6.88;;;4.10;;
46348;SDS011;32057;47.830;19.046;2023-02-15T01:22:52;4.85;;;4.15;;
46348;SDS011;32057;47.830;19.046;2023-02-15T01:25:19;6.72;;;5.00;;
46348;SDS011;32057;47.830;19.046;2023-02-15T01:27:46;8.00;;;3.70;;
46348;SDS011;32057;47.830;19.046;2023-02-15T01:30:12;6.30;;;4.70;;
46348;SDS011;32057;47.830;19.046;2023-02-15T01:32:39;6.43;;;4.72;;
46348;SDS011;32057;47.830;19.046;2023-02-15T01:35:04;8.57;;;4.00;;
46348;SDS011;32057;47.830;19.046;2023-02-15T01:37:31;5.40;;;4.03;;
46348;SDS011;32057;47.830;19.046;2023-02-15T01:39:57;3.20;;;2.92;;
46348;SDS011;32057;47.830;19.046;2023-02-15T01:42:23;5.22;;;3.55;;
46348;SDS011;32057;47.830;19.046;2023-02-15T01:52:46;6.28;;;3.50;;
46348;SDS011;32057;47.830;19.046;2023-02-15T01:55:29;5.78;;;3.80;;
46348;SDS011;32057;47.830;19.046;2023-02-15T01:57:59;12.57;;;4.45;;
46348;SDS011;32057;47.830;19.046;2023-02-15T02:00:25;4.28;;;3.92;;
46348;SDS011;32057;47.830;19.046;2023-02-15T02:02:52;10.10;;;5.20;;
46348;SDS011;32057;47.830;19.046;2023-02-15T02:05:20;3.63;;;2.95;;
46348;SDS011;32057;47.830;19.046;2023-02-15T02:07:46;9.35;;;5.00;;
46348;SDS011;32057;47.830;19.046;2023-02-15T02:10:17;5.07;;;4.65;;
46348;SDS011;32057;47.830;19.046;2023-02-15T02:12:46;4.75;;;3.10;;
46348;SDS011;32057;47.830;19.046;2023-02-15T02:15:14;2.78;;;2.50;;
46348;SDS011;32057;47.830;19.046;2023-02-15T02:20:39;7.22;;;4.70;;
46348;SDS011;32057;47.830;19.046;2023-02-15T02:28:45;4.90;;;2.38;;
46348;SDS011;32057;47.830;19.046;2023-02-15T02:42:29;11.68;;;3.55;;
46348;SDS011;32057;47.830;19.046;2023-02-15T02:45:15;6.43;;;3.40;;
46348;SDS011;32057;47.830;19.046;2023-02-15T02:50:14;3.60;;;3.13;;
46348;SDS011;32057;47.830;19.046;2023-02-15T02:52:42;7.10;;;3.80;;
46348;SDS011;32057;47.830;19.046;2023-02-15T02:58:01;5.43;;;3.15;;
46348;SDS011;32057;47.830;19.046;2023-02-15T03:00:40;6.82;;;4.82;;
46348;SDS011;32057;47.830;19.046;2023-02-15T03:03:16;12.30;;;5.07;;
46348;SDS011;32057;47.830;19.046;2023-02-15T03:06:18;8.18;;;4.50;;
46348;SDS011;32057;47.830;19.046;2023-02-15T03:08:51;9.00;;;4.63;;
46348;SDS011;32057;47.830;19.046;2023-02-15T03:11:23;5.13;;;4.25;;
46348;SDS011;32057;47.830;19.046;2023-02-15T03:13:48;5.20;;;2.88;;
46348;SDS011;32057;47.830;19.046;2023-02-15T03:16:15;3.55;;;3.08;;
46348;SDS011;32057;47.830;19.046;2023-02-15T03:22:01;7.75;;;3.38;;
46348;SDS011;32057;47.830;19.046;2023-02-15T03:24:53;2.60;;;2.42;;
46348;SDS011;32057;47.830;19.046;2023-02-15T03:27:31;6.47;;;4.18;;
46348;SDS011;32057;47.830;19.046;2023-02-15T03:30:04;7.13;;;2.22;;
46348;SDS011;32057;47.830;19.046;2023-02-15T03:32:32;5.30;;;4.75;;
46348;SDS011;32057;47.830;19.046;2023-02-15T03:34:59;5.93;;;2.72;;
46348;SDS011;32057;47.830;19.046;2023-02-15T03:37:46;3.58;;;2.70;;
46348;SDS011;32057;47.830;19.046;2023-02-15T03:40:19;3.95;;;3.50;;
46348;SDS011;32057;47.830;19.046;2023-02-15T03:45:47;5.82;;;3.80;;
46348;SDS011;32057;47.830;19.046;2023-02-15T03:48:24;4.38;;;3.97;;
46348;SDS011;32057;47.830;19.046;2023-02-15T03:50:55;5.57;;;3.97;;
46348;SDS011;32057;47.830;19.046;2023-02-15T03:53:43;4.93;;;3.33;;
46348;SDS011;32057;47.830;19.046;2023-02-15T03:56:11;3.75;;;2.25;;
46348;SDS011;32057;47.830;19.046;2023-02-15T03:58:36;4.07;;;2.80;;
46348;SDS011;32057;47.830;19.046;2023-02-15T04:04:35;3.40;;;2.70;;
46348;SDS011;32057;47.830;19.046;2023-02-15T04:07:06;4.13;;;3.25;;
46348;SDS011;32057;47.830;19.046;2023-02-15T04:09:33;3.20;;;2.47;;
46348;SDS011;32057;47.830;19.046;2023-02-15T04:12:17;2.72;;;2.28;;
46348;SDS011;32057;47.830;19.046;2023-02-15T04:14:42;4.25;;;3.85;;
46348;SDS011;32057;47.830;19.046;2023-02-15T04:17:26;3.33;;;2.42;;
46348;SDS011;32057;47.830;19.046;2023-02-15T04:19:52;5.72;;;4.10;;
46348;SDS011;32057;47.830;19.046;2023-02-15T04:22:36;7.53;;;2.90;;
46348;SDS011;32057;47.830;19.046;2023-02-15T04:25:20;4.25;;;3.05;;
46348;SDS011;32057;47.830;19.046;2023-02-15T04:27:52;6.85;;;4.70;;
46348;SDS011;32057;47.830;19.046;2023-02-15T04:30:20;3.72;;;1.80;;
46348;SDS011;32057;47.830;19.046;2023-02-15T04:32:47;4.30;;;3.15;;
46348;SDS011;32057;47.830;19.046;2023-02-15T04:35:13;5.40;;;2.70;;
46348;SDS011;32057;47.830;19.046;2023-02-15T04:37:39;4.70;;;3.83;;
46348;SDS011;32057;47.830;19.046;2023-02-15T04:40:06;5.95;;;3.20;;
46348;SDS011;32057;47.830;19.046;2023-02-15T04:42:33;6.68;;;3.25;;
46348;SDS011;32057;47.830;19.046;2023-02-15T04:44:58;3.45;;;3.25;;
46348;SDS011;32057;47.830;19.046;2023-02-15T04:47:24;13.57;;;5.57;;
46348;SDS011;32057;47.830;19.046;2023-02-15T04:49:49;3.15;;;2.63;;
46348;SDS011;32057;47.830;19.046;2023-02-15T04:52:15;6.18;;;3.20;;
46348;SDS011;32057;47.830;19.046;2023-02-15T04:54:42;11.23;;;2.53;;
46348;SDS011;32057;47.830;19.046;2023-02-15T04:57:09;12.45;;;3.85;;
46348;SDS011;32057;47.830;19.046;2023-02-15T04:59:34;3.30;;;2.75;;
46348;SDS011;32057;47.830;19.046;2023-02-15T05:02:00;4.78;;;3.17;;
46348;SDS011;32057;47.830;19.046;2023-02-15T05:04:25;3.78;;;2.10;;
46348;SDS011;32057;47.830;19.046;2023-02-15T05:06:51;4.35;;;2.63;;
46348;SDS011;32057;47.830;19.046;2023-02-15T05:09:16;6.07;;;3.00;;
46348;SDS011;32057;47.830;19.046;2023-02-15T05:11:42;5.50;;;3.28;;
46348;SDS011;32057;47.830;19.046;2023-02-15T05:14:07;7.95;;;3.05;;
46348;SDS011;32057;47.830;19.046;2023-02-15T05:16:33;2.05;;;1.95;;
46348;SDS011;32057;47.830;19.046;2023-02-15T05:18:58;5.07;;;3.67;;
46348;SDS011;32057;47.830;19.046;2023-02-15T05:21:24;8.40;;;3.80;;
46348;SDS011;32057;47.830;19.046;2023-02-15T05:23:50;3.65;;;2.30;;
46348;SDS011;32057;47.830;19.046;2023-02-15T05:26:19;4.13;;;2.63;;
46348;SDS011;32057;47.830;19.046;2023-02-15T05:29:06;3.20;;;2.90;;
46348;SDS011;32057;47.830;19.046;2023-02-15T05:31:32;5.50;;;2.78;;
46348;SDS011;32057;47.830;19.046;2023-02-15T05:33:57;2.58;;;2.38;;
46348;SDS011;32057;47.830;19.046;2023-02-15T05:36:23;4.40;;;3.47;;
46348;SDS011;32057;47.830;19.046;2023-02-15T05:38:48;4.90;;;4.13;;
46348;SDS011;32057;47.830;19.046;2023-02-15T05:41:14;4.38;;;3.72;;
46348;SDS011;32057;47.830;19.046;2023-02-15T05:43:40;2.60;;;1.77;;
46348;SDS011;32057;47.830;19.046;2023-02-15T05:46:06;2.53;;;2.33;;
46348;SDS011;32057;47.830;19.046;2023-02-15T05:48:32;8.25;;;3.40;;
46348;SDS011;32057;47.830;19.046;2023-02-15T05:50:58;22.85;;;3.65;;
46348;SDS011;32057;47.830;19.046;2023-02-15T05:53:26;4.90;;;4.40;;
46348;SDS011;32057;47.830;19.046;2023-02-15T05:55:53;3.85;;;3.30;;
46348;SDS011;32057;47.830;19.046;2023-02-15T05:58:19;7.20;;;4.38;;
46348;SDS011;32057;47.830;19.046;2023-02-15T06:00:45;4.78;;;3.30;;
46348;SDS011;32057;47.830;19.046;2023-02-15T06:03:10;8.05;;;3.65;;
46348;SDS011;32057;47.830;19.046;2023-02-15T06:05:35;4.38;;;2.95;;
46348;SDS011;32057;47.830;19.046;2023-02-15T06:08:01;11.18;;;4.57;;
46348;SDS011;32057;47.830;19.046;2023-02-15T06:10:26;3.42;;;3.10;;
46348;SDS011;32057;47.830;19.046;2023-02-15T06:12:52;9.23;;;5.72;;
46348;SDS011;32057;47.830;19.046;2023-02-15T06:15:17;4.05;;;3.58;;
46348;SDS011;32057;47.830;19.046;2023-02-15T06:17:43;5.03;;;3.90;;
46348;SDS011;32057;47.830;19.046;2023-02-15T06:20:09;7.15;;;3.35;;
46348;SDS011;32057;47.830;19.046;2023-02-15T06:22:35;8.32;;;5.00;;
46348;SDS011;32057;47.830;19.046;2023-02-15T06:25:00;8.38;;;4.68;;
46348;SDS011;32057;47.830;19.046;2023-02-15T06:27:26;3.70;;;2.72;;
46348;SDS011;32057;47.830;19.046;2023-02-15T06:29:51;4.45;;;2.90;;
46348;SDS011;32057;47.830;19.046;2023-02-15T06:32:17;6.70;;;4.95;;
46348;SDS011;32057;47.830;19.046;2023-02-15T06:34:42;12.93;;;5.55;;
46348;SDS011;32057;47.830;19.046;2023-02-15T06:37:08;4.78;;;3.38;;
46348;SDS011;32057;47.830;19.046;2023-02-15T06:39:33;8.60;;;4.85;;
46348;SDS011;32057;47.830;19.046;2023-02-15T06:41:59;17.63;;;5.28;;
46348;SDS011;32057;47.830;19.046;2023-02-15T06:44:24;5.65;;;4.07;;
46348;SDS011;32057;47.830;19.046;2023-02-15T06:46:50;11.57;;;4.90;;
46348;SDS011;32057;47.830;19.046;2023-02-15T06:49:15;9.35;;;4.00;;
46348;SDS011;32057;47.830;19.046;2023-02-15T06:51:41;10.60;;;4.93;;
46348;SDS011;32057;47.830;19.046;2023-02-15T06:54:06;10.57;;;4.45;;
46348;SDS011;32057;47.830;19.046;2023-02-15T06:56:32;9.80;;;5.22;;
46348;SDS011;32057;47.830;19.046;2023-02-15T06:58:57;10.98;;;6.28;;
46348;SDS011;32057;47.830;19.046;2023-02-15T07:01:23;10.55;;;6.63;;
46348;SDS011;32057;47.830;19.046;2023-02-15T07:03:48;9.80;;;5.88;;
46348;SDS011;32057;47.830;19.046;2023-02-15T07:06:14;7.97;;;4.68;;
46348;SDS011;32057;47.830;19.046;2023-02-15T07:08:39;7.90;;;4.82;;
46348;SDS011;32057;47.830;19.046;2023-02-15T07:11:05;10.70;;;4.72;;
46348;SDS011;32057;47.830;19.046;2023-02-15T07:13:50;11.73;;;4.85;;
46348;SDS011;32057;47.830;19.046;2023-02-15T07:16:17;7.70;;;6.30;;
46348;SDS011;32057;47.830;19.046;2023-02-15T07:18:43;11.32;;;4.22;;
46348;SDS011;32057;47.830;19.046;2023-02-15T07:21:08;9.02;;;5.78;;
46348;SDS011;32057;47.830;19.046;2023-02-15T07:23:37;4.88;;;3.45;;
46348;SDS011;32057;47.830;19.046;2023-02-15T07:26:04;6.65;;;4.43;;
46348;SDS011;32057;47.830;19.046;2023-02-15T07:28:32;9.25;;;5.82;;
46348;SDS011;32057;47.830;19.046;2023-02-15T07:31:00;6.53;;;5.70;;
46348;SDS011;32057;47.830;19.046;2023-02-15T07:33:27;9.15;;;4.63;;
46348;SDS011;32057;47.830;19.046;2023-02-15T07:35:53;15.52;;;6.63;;
46348;SDS011;32057;47.830;19.046;2023-02-15T07:38:21;8.43;;;4.20;;
46348;SDS011;32057;47.830;19.046;2023-02-15T07:40:47;13.35;;;5.25;;
46348;SDS011;32057;47.830;19.046;2023-02-15T07:43:13;12.18;;;5.05;;
46348;SDS011;32057;47.830;19.046;2023-02-15T07:45:39;14.27;;;6.97;;
46348;SDS011;32057;47.830;19.046;2023-02-15T07:48:05;9.73;;;4.82;;
46348;SDS011;32057;47.830;19.046;2023-02-15T07:50:31;7.55;;;5.65;;
46348;SDS011;32057;47.830;19.046;2023-02-15T07:52:57;11.25;;;5.80;;
46348;SDS011;32057;47.830;19.046;2023-02-15T07:55:22;11.10;;;6.70;;
46348;SDS011;32057;47.830;19.046;2023-02-15T07:57:48;11.18;;;6.70;;
46348;SDS011;32057;47.830;19.046;2023-02-15T08:00:15;8.63;;;6.47;;
46348;SDS011;32057;47.830;19.046;2023-02-15T08:02:42;17.83;;;6.80;;
46348;SDS011;32057;47.830;19.046;2023-02-15T08:05:34;12.18;;;6.72;;
46348;SDS011;32057;47.830;19.046;2023-02-15T08:08:00;18.48;;;8.30;;
46348;SDS011;32057;47.830;19.046;2023-02-15T08:10:25;12.77;;;7.90;;
46348;SDS011;32057;47.830;19.046;2023-02-15T08:13:11;15.32;;;8.93;;
46348;SDS011;32057;47.830;19.046;2023-02-15T08:15:36;12.25;;;8.35;;
46348;SDS011;32057;47.830;19.046;2023-02-15T08:18:01;22.45;;;12.80;;
46348;SDS011;32057;47.830;19.046;2023-02-15T08:20:27;25.20;;;13.32;;
46348;SDS011;32057;47.830;19.046;2023-02-15T08:22:52;16.92;;;9.13;;
46348;SDS011;32057;47.830;19.046;2023-02-15T08:25:18;10.82;;;8.10;;
46348;SDS011;32057;47.830;19.046;2023-02-15T08:27:43;16.52;;;9.80;;
46348;SDS011;32057;47.830;19.046;2023-02-15T08:30:09;11.77;;;7.78;;
46348;SDS011;32057;47.830;19.046;2023-02-15T08:32:34;14.10;;;7.00;;
46348;SDS011;32057;47.830;19.046;2023-02-15T08:35:00;13.13;;;7.85;;
46348;SDS011;32057;47.830;19.046;2023-02-15T08:37:25;15.48;;;7.30;;
46348;SDS011;32057;47.830;19.046;2023-02-15T08:39:51;13.93;;;8.27;;
46348;SDS011;32057;47.830;19.046;2023-02-15T08:42:16;12.95;;;8.18;;
46348;SDS011;32057;47.830;19.046;2023-02-15T08:44:42;17.90;;;11.07;;
46348;SDS011;32057;47.830;19.046;2023-02-15T08:47:07;25.95;;;9.52;;
46348;SDS011;32057;47.830;19.046;2023-02-15T08:49:33;16.75;;;7.20;;
46348;SDS011;32057;47.830;19.046;2023-02-15T08:51:58;10.57;;;6.53;;
46348;SDS011;32057;47.830;19.046;2023-02-15T08:54:24;10.35;;;6.97;;
46348;SDS011;32057;47.830;19.046;2023-02-15T08:56:50;15.18;;;8.55;;
46348;SDS011;32057;47.830;19.046;2023-02-15T08:59:17;11.80;;;7.07;;
46348;SDS011;32057;47.830;19.046;2023-02-15T09:01:44;12.45;;;7.22;;
46348;SDS011;32057;47.830;19.046;2023-02-15T09:04:10;14.20;;;8.50;;
46348;SDS011;32057;47.830;19.046;2023-02-15T09:06:38;15.10;;;7.63;;
46348;SDS011;32057;47.830;19.046;2023-02-15T09:09:05;12.05;;;8.45;;
46348;SDS011;32057;47.830;19.046;2023-02-15T09:11:50;21.70;;;9.00;;
46348;SDS011;32057;47.830;19.046;2023-02-15T09:14:17;18.73;;;9.30;;
46348;SDS011;32057;47.830;19.046;2023-02-15T09:16:49;11.38;;;8.40;;
46348;SDS011;32057;47.830;19.046;2023-02-15T09:19:17;17.63;;;9.02;;
46348;SDS011;32057;47.830;19.046;2023-02-15T09:21:44;17.10;;;8.73;;
46348;SDS011;32057;47.830;19.046;2023-02-15T09:24:11;12.07;;;7.18;;
46348;SDS011;32057;47.830;19.046;2023-02-15T09:26:39;19.83;;;9.05;;
46348;SDS011;32057;47.830;19.046;2023-02-15T09:29:07;17.85;;;8.07;;
46348;SDS011;32057;47.830;19.046;2023-02-15T09:31:37;18.40;;;8.13;;
46348;SDS011;32057;47.830;19.046;2023-02-15T09:34:09;12.13;;;8.07;;
46348;SDS011;32057;47.830;19.046;2023-02-15T09:36:36;15.95;;;7.32;;
46348;SDS011;32057;47.830;19.046;2023-02-15T09:39:13;11.20;;;6.88;;
46348;SDS011;32057;47.830;19.046;2023-02-15T09:56:08;14.00;;;6.38;;
46348;SDS011;32057;47.830;19.046;2023-02-15T09:58:54;14.55;;;6.38;;
46348;SDS011;32057;47.830;19.046;2023-02-15T10:21:01;13.07;;;6.70;;
46348;SDS011;32057;47.830;19.046;2023-02-15T10:26:12;8.90;;;6.03;;
46348;SDS011;32057;47.830;19.046;2023-02-15T10:29:04;8.65;;;6.90;;
46348;SDS011;32057;47.830;19.046;2023-02-15T10:34:16;8.73;;;5.13;;
46348;SDS011;32057;47.830;19.046;2023-02-15T10:50:59;12.25;;;6.30;;
46348;SDS011;32057;47.830;19.046;2023-02-15T10:56:21;4.43;;;3.58;;
46348;SDS011;32057;47.830;19.046;2023-02-15T11:01:57;6.10;;;4.07;;
46348;SDS011;32057;47.830;19.046;2023-02-15T11:07:16;7.00;;;4.72;;
46348;SDS011;32057;47.830;19.046;2023-02-15T11:09:51;6.85;;;5.28;;
46348;SDS011;32057;47.830;19.046;2023-02-15T11:12:26;9.60;;;6.13;;
46348;SDS011;32057;47.830;19.046;2023-02-15T11:15:04;8.27;;;5.32;;
46348;SDS011;32057;47.830;19.046;2023-02-15T11:17:42;9.73;;;5.00;;
46348;SDS011;32057;47.830;19.046;2023-02-15T11:22:58;7.65;;;4.82;;
46348;SDS011;32057;47.830;19.046;2023-02-15T11:25:31;9.35;;;4.78;;
46348;SDS011;32057;47.830;19.046;2023-02-15T11:27:59;7.35;;;4.47;;
46348;SDS011;32057;47.830;19.046;2023-02-15T11:30:29;7.47;;;5.35;;
46348;SDS011;32057;47.830;19.046;2023-02-15T11:33:22;5.95;;;4.47;;
46348;SDS011;32057;47.830;19.046;2023-02-15T11:35:53;7.15;;;5.18;;
46348;SDS011;32057;47.830;19.046;2023-02-15T11:38:22;15.35;;;6.22;;
46348;SDS011;32057;47.830;19.046;2023-02-15T11:40:52;10.68;;;5.00;;
46348;SDS011;32057;47.830;19.046;2023-02-15T11:43:34;4.90;;;4.40;;
46348;SDS011;32057;47.830;19.046;2023-02-15T11:46:12;9.20;;;5.75;;
46348;SDS011;32057;47.830;19.046;2023-02-15T11:48:39;12.05;;;6.38;;
46348;SDS011;32057;47.830;19.046;2023-02-15T11:51:08;11.02;;;5.93;;
46348;SDS011;32057;47.830;19.046;2023-02-15T11:53:37;7.65;;;5.68;;
46348;SDS011;32057;47.830;19.046;2023-02-15T11:56:03;8.43;;;5.95;;
46348;SDS011;32057;47.830;19.046;2023-02-15T11:58:40;15.70;;;6.00;;
46348;SDS011;32057;47.830;19.046;2023-02-15T12:06:52;10.43;;;4.88;;
46348;SDS011;32057;47.830;19.046;2023-02-15T12:11:50;13.55;;;4.25;;
46348;SDS011;32057;47.830;19.046;2023-02-15T12:14:16;8.02;;;5.25;;
46348;SDS011;32057;47.830;19.046;2023-02-15T12:16:45;11.90;;;6.50;;
46348;SDS011;32057;47.830;19.046;2023-02-15T12:24:28;7.18;;;5.47;;
46348;SDS011;32057;47.830;19.046;2023-02-15T12:29:41;9.55;;;5.90;;
46348;SDS011;32057;47.830;19.046;2023-02-15T12:32:11;9.38;;;6.20;;
46348;SDS011;32057;47.830;19.046;2023-02-15T12:34:43;8.18;;;5.15;;
46348;SDS011;32057;47.830;19.046;2023-02-15T12:37:15;9.90;;;5.97;;
46348;SDS011;32057;47.830;19.046;2023-02-15T12:39:51;10.98;;;6.63;;
46348;SDS011;32057;47.830;19.046;2023-02-15T12:42:17;7.13;;;4.82;;
46348;SDS011;32057;47.830;19.046;2023-02-15T12:45:00;8.63;;;5.65;;
46348;SDS011;32057;47.830;19.046;2023-02-15T12:47:28;8.27;;;5.32;;
46348;SDS011;32057;47.830;19.046;2023-02-15T12:50:06;10.55;;;5.03;;
46348;SDS011;32057;47.830;19.046;2023-02-15T12:52:41;10.32;;;4.80;;
46348;SDS011;32057;47.830;19.046;2023-02-15T12:55:27;11.30;;;6.32;;
46348;SDS011;32057;47.830;19.046;2023-02-15T13:06:32;9.95;;;6.43;;
46348;SDS011;32057;47.830;19.046;2023-02-15T13:09:24;9.50;;;5.25;;
46348;SDS011;32057;47.830;19.046;2023-02-15T13:11:50;8.52;;;5.15;;
46348;SDS011;32057;47.830;19.046;2023-02-15T13:14:20;6.82;;;5.60;;
46348;SDS011;32057;47.830;19.046;2023-02-15T13:16:52;10.52;;;6.63;;
46348;SDS011;32057;47.830;19.046;2023-02-15T13:22:06;10.18;;;6.07;;
46348;SDS011;32057;47.830;19.046;2023-02-15T13:24:48;6.10;;;5.15;;
46348;SDS011;32057;47.830;19.046;2023-02-15T13:27:18;10.05;;;6.20;;
46348;SDS011;32057;47.830;19.046;2023-02-15T13:29:50;7.90;;;5.35;;
46348;SDS011;32057;47.830;19.046;2023-02-15T13:32:34;13.65;;;5.32;;
46348;SDS011;32057;47.830;19.046;2023-02-15T13:35:03;8.88;;;5.95;;
46348;SDS011;32057;47.830;19.046;2023-02-15T13:40:55;9.20;;;5.13;;
46348;SDS011;32057;47.830;19.046;2023-02-15T13:46:19;6.88;;;4.57;;
46348;SDS011;32057;47.830;19.046;2023-02-15T14:10:46;8.65;;;6.03;;
46348;SDS011;32057;47.830;19.046;2023-02-15T14:13:35;6.18;;;4.90;;
46348;SDS011;32057;47.830;19.046;2023-02-15T14:21:45;8.40;;;5.63;;
46348;SDS011;32057;47.830;19.046;2023-02-15T14:29:35;9.48;;;5.72;;
46348;SDS011;32057;47.830;19.046;2023-02-15T14:32:25;9.40;;;5.78;;
46348;SDS011;32057;47.830;19.046;2023-02-15T14:35:18;8.85;;;4.70;;
46348;SDS011;32057;47.830;19.046;2023-02-15T14:49:10;10.02;;;6.70;;
46348;SDS011;32057;47.830;19.046;2023-02-15T14:56:45;11.27;;;6.85;;
46348;SDS011;32057;47.830;19.046;2023-02-15T15:01:36;9.70;;;5.97;;
46348;SDS011;32057;47.830;19.046;2023-02-15T15:04:07;11.43;;;6.00;;
46348;SDS011;32057;47.830;19.046;2023-02-15T15:06:39;11.60;;;6.20;;
46348;SDS011;32057;47.830;19.046;2023-02-15T15:09:19;13.85;;;7.43;;
46348;SDS011;32057;47.830;19.046;2023-02-15T15:11:51;12.75;;;7.35;;
46348;SDS011;32057;47.830;19.046;2023-02-15T15:17:02;13.30;;;7.50;;
46348;SDS011;32057;47.830;19.046;2023-02-15T15:22:19;10.88;;;7.10;;
46348;SDS011;32057;47.830;19.046;2023-02-15T15:49:56;9.35;;;6.05;;
46348;SDS011;32057;47.830;19.046;2023-02-15T15:52:23;8.13;;;5.43;;
46348;SDS011;32057;47.830;19.046;2023-02-15T15:54:52;10.05;;;5.63;;
46348;SDS011;32057;47.830;19.046;2023-02-15T15:59:55;10.40;;;6.22;;
46348;SDS011;32057;47.830;19.046;2023-02-15T16:02:24;8.95;;;5.57;;
46348;SDS011;32057;47.830;19.046;2023-02-15T16:04:50;8.48;;;5.57;;
46348;SDS011;32057;47.830;19.046;2023-02-15T16:09:41;8.60;;;5.00;;
46348;SDS011;32057;47.830;19.046;2023-02-15T16:12:19;7.90;;;5.93;;
46348;SDS011;32057;47.830;19.046;2023-02-15T16:14:45;10.07;;;7.18;;
46348;SDS011;32057;47.830;19.046;2023-02-15T16:17:22;13.07;;;5.63;;
46348;SDS011;32057;47.830;19.046;2023-02-15T16:19:50;9.15;;;6.00;;
46348;SDS011;32057;47.830;19.046;2023-02-15T16:22:24;8.50;;;5.47;;
46348;SDS011;32057;47.830;19.046;2023-02-15T16:27:39;9.27;;;5.70;;
46348;SDS011;32057;47.830;19.046;2023-02-15T16:33:06;11.32;;;5.85;;
46348;SDS011;32057;47.830;19.046;2023-02-15T16:35:34;13.85;;;5.78;;
46348;SDS011;32057;47.830;19.046;2023-02-15T16:38:01;13.27;;;7.20;;
46348;SDS011;32057;47.830;19.046;2023-02-15T16:40:48;8.65;;;5.40;;
46348;SDS011;32057;47.830;19.046;2023-02-15T16:43:16;9.88;;;5.82;;
46348;SDS011;32057;47.830;19.046;2023-02-15T16:45:45;9.95;;;6.55;;
46348;SDS011;32057;47.830;19.046;2023-02-15T16:48:13;18.48;;;6.70;;
46348;SDS011;32057;47.830;19.046;2023-02-15T16:50:46;14.07;;;6.57;;
46348;SDS011;32057;47.830;19.046;2023-02-15T16:53:20;11.25;;;6.75;;
46348;SDS011;32057;47.830;19.046;2023-02-15T16:55:50;14.38;;;6.55;;
46348;SDS011;32057;47.830;19.046;2023-02-15T16:58:20;15.05;;;5.95;;
46348;SDS011;32057;47.830;19.046;2023-02-15T17:03:22;10.02;;;6.22;;
46348;SDS011;32057;47.830;19.046;2023-02-15T17:05:56;9.30;;;5.70;;
46348;SDS011;32057;47.830;19.046;2023-02-15T17:08:31;8.73;;;5.53;;
46348;SDS011;32057;47.830;19.046;2023-02-15T17:13:24;9.55;;;7.57;;
46348;SDS011;32057;47.830;19.046;2023-02-15T17:18:43;15.27;;;8.57;;
46348;SDS011;32057;47.830;19.046;2023-02-15T17:21:16;11.05;;;7.10;;
46348;SDS011;32057;47.830;19.046;2023-02-15T17:23:45;12.95;;;6.65;;
46348;SDS011;32057;47.830;19.046;2023-02-15T17:26:22;11.70;;;6.88;;
46348;SDS011;32057;47.830;19.046;2023-02-15T17:28:55;11.65;;;7.25;;
46348;SDS011;32057;47.830;19.046;2023-02-15T17:31:24;11.95;;;8.10;;
46348;SDS011;32057;47.830;19.046;2023-02-15T17:33:54;17.65;;;6.80;;
46348;SDS011;32057;47.830;19.046;2023-02-15T17:36:22;16.85;;;8.15;;
46348;SDS011;32057;47.830;19.046;2023-02-15T17:41:24;11.05;;;8.15;;
46348;SDS011;32057;47.830;19.046;2023-02-15T17:43:50;15.88;;;9.07;;
46348;SDS011;32057;47.830;19.046;2023-02-15T17:46:16;10.65;;;6.60;;
46348;SDS011;32057;47.830;19.046;2023-02-15T17:48:45;14.38;;;7.38;;
46348;SDS011;32057;47.830;19.046;2023-02-15T17:51:13;16.50;;;10.32;;
46348;SDS011;32057;47.830;19.046;2023-02-15T17:53:41;16.17;;;8.23;;
46348;SDS011;32057;47.830;19.046;2023-02-15T17:56:27;11.77;;;8.23;;
46348;SDS011;32057;47.830;19.046;2023-02-15T17:58:53;12.10;;;6.95;;
46348;SDS011;32057;47.830;19.046;2023-02-15T18:01:18;11.35;;;7.53;;
46348;SDS011;32057;47.830;19.046;2023-02-15T18:04:04;11.00;;;7.35;;
46348;SDS011;32057;47.830;19.046;2023-02-15T18:06:53;17.80;;;8.55;;
46348;SDS011;32057;47.830;19.046;2023-02-15T18:09:37;16.67;;;8.98;;
46348;SDS011;32057;47.830;19.046;2023-02-15T18:12:23;15.65;;;8.60;;
46348;SDS011;32057;47.830;19.046;2023-02-15T18:14:53;15.70;;;8.07;;
46348;SDS011;32057;47.830;19.046;2023-02-15T18:17:21;10.45;;;7.25;;
46348;SDS011;32057;47.830;19.046;2023-02-15T18:19:51;16.48;;;8.45;;
46348;SDS011;32057;47.830;19.046;2023-02-15T18:22:18;9.52;;;6.18;;
46348;SDS011;32057;47.830;19.046;2023-02-15T18:24:46;14.35;;;8.20;;
46348;SDS011;32057;47.830;19.046;2023-02-15T18:27:14;37.67;;;8.05;;
46348;SDS011;32057;47.830;19.046;2023-02-15T18:29:42;13.57;;;8.00;;
46348;SDS011;32057;47.830;19.046;2023-02-15T18:32:08;14.32;;;7.13;;
46348;SDS011;32057;47.830;19.046;2023-02-15T18:34:40;11.68;;;7.70;;
46348;SDS011;32057;47.830;19.046;2023-02-15T18:37:13;13.02;;;7.25;;
46348;SDS011;32057;47.830;19.046;2023-02-15T18:44:47;13.38;;;7.25;;
46348;SDS011;32057;47.830;19.046;2023-02-15T18:47:13;14.27;;;8.27;;
46348;SDS011;32057;47.830;19.046;2023-02-15T18:49:39;21.15;;;9.80;;
46348;SDS011;32057;47.830;19.046;2023-02-15T18:52:04;13.23;;;8.80;;
46348;SDS011;32057;47.830;19.046;2023-02-15T18:54:30;12.32;;;8.27;;